createdAt,value
2022-12-20T00:01:33.171Z,1.88
2022-12-20T00:04:02.909Z,1.77
2022-12-20T00:06:29.680Z,2.53
2022-12-20T00:09:00.221Z,2.42
2022-12-20T00:11:28.374Z,1.90
2022-12-20T00:13:55.862Z,1.90
2022-12-20T00:16:25.133Z,1.75
2022-12-20T00:18:57.571Z,1.88
2022-12-20T00:21:24.960Z,1.27
2022-12-20T00:23:53.451Z,2.13
2022-12-20T00:26:25.991Z,1.52
2022-12-20T00:31:22.382Z,1.60
2022-12-20T00:33:52.221Z,1.85
2022-12-20T00:36:21.207Z,1.52
2022-12-20T00:38:49.268Z,1.70
2022-12-20T00:41:19.114Z,1.65
2022-12-20T00:43:46.141Z,1.42
2022-12-20T00:46:14.352Z,1.70
2022-12-20T00:48:41.419Z,1.52
2022-12-20T00:51:14.336Z,1.73
2022-12-20T00:53:42.232Z,1.70
2022-12-20T00:56:09.537Z,1.58
2022-12-20T00:58:39.498Z,1.67
2022-12-20T01:01:13.909Z,1.40
2022-12-20T01:03:41.416Z,1.50
2022-12-20T01:06:08.173Z,1.58
2022-12-20T01:08:35.709Z,1.50
2022-12-20T01:11:06.742Z,1.50
2022-12-20T01:13:35.613Z,1.40
2022-12-20T01:16:23.444Z,1.48
2022-12-20T01:18:52.416Z,1.50
2022-12-20T01:21:21.541Z,1.73
2022-12-20T01:23:48.346Z,1.92
2022-12-20T01:26:18.504Z,1.55
2022-12-20T01:28:47.495Z,1.60
2022-12-20T01:31:17.174Z,1.85
2022-12-20T01:33:44.947Z,1.50
2022-12-20T01:36:16.862Z,1.65
2022-12-20T01:38:44.143Z,1.75
2022-12-20T01:41:17.316Z,1.95
2022-12-20T01:46:41.001Z,1.80
2022-12-20T01:49:22.379Z,1.75
2022-12-20T01:51:59.284Z,1.33
2022-12-20T01:54:30.755Z,1.75
2022-12-20T01:57:02.300Z,1.50
2022-12-20T01:59:29.676Z,1.50
2022-12-20T02:02:00.448Z,1.48
2022-12-20T02:04:27.216Z,1.95
2022-12-20T02:06:54.504Z,1.85
2022-12-20T02:09:21.787Z,1.88
2022-12-20T02:12:15.164Z,1.73
2022-12-20T02:15:22.433Z,1.98
2022-12-20T02:18:11.333Z,1.60
2022-12-20T02:21:14.350Z,1.50
2022-12-20T02:24:11.005Z,2.10
2022-12-20T02:27:03.257Z,1.70
2022-12-20T02:30:06.386Z,1.65
2022-12-20T02:32:36.627Z,2.13
2022-12-20T02:35:07.478Z,1.80
2022-12-20T02:37:35.008Z,1.95
2022-12-20T02:40:04.533Z,1.98
2022-12-20T02:42:33.848Z,2.28
2022-12-20T02:45:19.573Z,2.28
2022-12-20T02:48:11.158Z,2.20
2022-12-20T02:50:45.900Z,2.30
2022-12-20T02:53:14.308Z,1.70
2022-12-20T02:55:52.733Z,2.50
2022-12-20T02:58:26.020Z,2.00
2022-12-20T03:03:24.572Z,2.75
2022-12-20T03:05:55.298Z,2.40
2022-12-20T03:08:24.029Z,2.22
2022-12-20T03:10:51.920Z,2.20
2022-12-20T03:13:20.531Z,2.22
2022-12-20T03:16:03.180Z,2.45
2022-12-20T03:18:30.460Z,2.00
2022-12-20T03:20:57.239Z,3.08
2022-12-20T03:23:24.618Z,2.70
2022-12-20T03:25:51.386Z,3.17
2022-12-20T03:28:28.009Z,2.92
2022-12-20T03:30:55.849Z,2.45
2022-12-20T03:33:23.464Z,2.63
2022-12-20T03:35:51.014Z,3.05
2022-12-20T03:38:19.091Z,2.67
2022-12-20T03:40:45.815Z,2.80
2022-12-20T03:43:16.738Z,2.47
2022-12-20T03:45:43.392Z,2.53
2022-12-20T03:48:10.859Z,2.78
2022-12-20T03:50:38.158Z,2.65
2022-12-20T03:53:05.664Z,2.72
2022-12-20T03:55:33.457Z,2.75
2022-12-20T03:58:00.983Z,2.88
2022-12-20T04:00:31.907Z,3.03
2022-12-20T04:03:18.539Z,2.70
2022-12-20T04:05:45.364Z,2.65
2022-12-20T04:08:13.050Z,2.58
2022-12-20T04:11:00.267Z,2.90
2022-12-20T04:13:32.970Z,3.17
2022-12-20T04:16:00.938Z,3.65
2022-12-20T04:18:31.541Z,3.38
2022-12-20T04:21:01.570Z,3.05
2022-12-20T04:23:31.513Z,3.92
2022-12-20T04:25:58.916Z,3.38
2022-12-20T04:28:27.722Z,3.38
2022-12-20T04:30:55.909Z,3.90
2022-12-20T04:33:27.205Z,3.78
2022-12-20T04:35:55.522Z,4.45
2022-12-20T04:38:24.971Z,4.80
2022-12-20T04:40:55.354Z,5.13
2022-12-20T04:43:29.329Z,5.43
2022-12-20T04:45:59.580Z,5.03
2022-12-20T04:51:18.291Z,5.38
2022-12-20T04:53:49.307Z,5.07
2022-12-20T04:56:34.663Z,4.35
2022-12-20T04:59:08.906Z,5.57
2022-12-20T05:01:36.422Z,5.20
2022-12-20T05:04:04.874Z,5.40
2022-12-20T05:06:36.026Z,6.60
2022-12-20T05:09:04.502Z,5.43
2022-12-20T05:11:33.230Z,6.00
2022-12-20T05:14:00.837Z,5.70
2022-12-20T05:16:27.560Z,5.57
2022-12-20T05:18:55.537Z,5.88
2022-12-20T05:21:40.787Z,5.47
2022-12-20T05:24:28.497Z,5.32
2022-12-20T05:27:15.748Z,6.00
2022-12-20T05:29:42.627Z,5.68
2022-12-20T05:32:10.235Z,5.15
2022-12-20T05:34:40.480Z,5.57
2022-12-20T05:37:07.845Z,5.60
2022-12-20T05:39:37.025Z,5.53
2022-12-20T05:42:09.856Z,5.90
2022-12-20T05:44:36.739Z,6.82
2022-12-20T05:47:03.897Z,6.25
2022-12-20T05:49:33.634Z,6.05
2022-12-20T05:52:03.696Z,6.32
2022-12-20T05:54:30.483Z,6.28
2022-12-20T05:57:11.362Z,5.55
2022-12-20T05:59:40.601Z,6.45
2022-12-20T06:02:20.940Z,6.22
2022-12-20T06:04:51.452Z,5.82
2022-12-20T06:07:23.594Z,5.35
2022-12-20T06:09:56.093Z,5.15
2022-12-20T06:12:27.427Z,5.07
2022-12-20T06:14:54.212Z,4.93
2022-12-20T06:17:22.490Z,5.63
2022-12-20T06:19:51.141Z,5.35
2022-12-20T06:22:19.192Z,5.28
2022-12-20T06:24:50.391Z,5.53
2022-12-20T06:27:24.009Z,5.57
2022-12-20T06:29:59.832Z,5.72
2022-12-20T06:32:35.765Z,6.47
2022-12-20T06:35:03.176Z,5.55
2022-12-20T06:37:33.129Z,5.35
2022-12-20T06:40:00.220Z,5.60
2022-12-20T06:42:26.827Z,5.20
2022-12-20T06:44:56.280Z,5.80
2022-12-20T06:47:23.208Z,4.72
2022-12-20T06:49:53.157Z,4.57
2022-12-20T06:52:23.174Z,4.82
2022-12-20T06:54:55.503Z,4.72
2022-12-20T06:57:22.997Z,4.55
2022-12-20T06:59:52.799Z,4.88
2022-12-20T07:02:19.640Z,4.45
2022-12-20T07:04:47.887Z,4.90
2022-12-20T07:07:14.753Z,4.90
2022-12-20T07:09:43.752Z,4.80
2022-12-20T07:12:11.342Z,5.13
2022-12-20T07:14:40.533Z,4.82
2022-12-20T07:17:07.753Z,5.38
2022-12-20T07:19:37.465Z,4.50
2022-12-20T07:22:05.351Z,4.53
2022-12-20T07:24:33.696Z,4.35
2022-12-20T07:27:01.230Z,5.20
2022-12-20T07:29:30.470Z,4.85
2022-12-20T07:31:57.222Z,4.00
2022-12-20T07:34:25.440Z,4.75
2022-12-20T07:36:53.043Z,4.90
2022-12-20T07:39:21.726Z,4.70
2022-12-20T07:41:48.560Z,4.85
2022-12-20T07:44:17.159Z,4.45
2022-12-20T07:46:43.844Z,4.68
2022-12-20T07:49:11.162Z,4.03
2022-12-20T07:51:46.981Z,4.30
2022-12-20T07:54:25.664Z,4.45
2022-12-20T07:56:56.672Z,4.32
2022-12-20T07:59:30.668Z,4.15
2022-12-20T08:02:03.922Z,4.53
2022-12-20T08:04:34.130Z,4.43
2022-12-20T08:07:01.725Z,5.45
2022-12-20T08:09:34.614Z,5.05
2022-12-20T08:12:01.632Z,5.05
2022-12-20T08:14:28.354Z,4.28
2022-12-20T08:17:11.448Z,3.80
2022-12-20T08:19:38.704Z,4.72
2022-12-20T08:22:06.440Z,4.32
2022-12-20T08:24:34.434Z,4.40
2022-12-20T08:27:01.690Z,4.18
2022-12-20T08:29:28.469Z,3.60
2022-12-20T08:31:55.949Z,3.90
2022-12-20T08:34:22.669Z,4.25
2022-12-20T08:36:49.955Z,4.53
2022-12-20T08:39:16.638Z,5.07
2022-12-20T08:41:43.937Z,4.35
2022-12-20T08:44:10.693Z,4.10
2022-12-20T08:46:38.160Z,3.67
2022-12-20T08:49:05.790Z,3.90
2022-12-20T08:51:33.275Z,3.72
2022-12-20T08:54:00.005Z,3.97
2022-12-20T08:56:27.289Z,3.22
2022-12-20T08:58:53.978Z,3.20
2022-12-20T09:01:22.190Z,2.90
2022-12-20T09:03:49.313Z,2.85
2022-12-20T09:06:21.913Z,2.42
2022-12-20T09:08:48.965Z,3.42
2022-12-20T09:11:19.220Z,2.88
2022-12-20T09:13:47.858Z,2.47
2022-12-20T09:16:17.269Z,3.70
2022-12-20T09:18:47.790Z,2.40
2022-12-20T09:21:15.060Z,2.47
2022-12-20T09:23:41.739Z,2.85
2022-12-20T09:26:11.637Z,2.75
2022-12-20T09:28:38.587Z,2.72
2022-12-20T09:31:07.732Z,3.00
2022-12-20T09:33:35.342Z,3.55
2022-12-20T09:36:03.106Z,3.20
2022-12-20T09:38:31.109Z,3.85
2022-12-20T09:41:01.506Z,3.75
2022-12-20T09:43:28.886Z,3.75
2022-12-20T09:45:59.661Z,3.63
2022-12-20T09:48:28.715Z,3.90
2022-12-20T09:51:11.084Z,3.95
2022-12-20T09:54:06.204Z,2.97
2022-12-20T09:56:58.285Z,4.15
2022-12-20T09:59:25.335Z,4.00
2022-12-20T10:01:52.777Z,4.30
2022-12-20T10:04:31.596Z,3.65
2022-12-20T10:07:31.805Z,4.28
2022-12-20T10:10:22.880Z,3.83
2022-12-20T10:12:53.323Z,4.38
2022-12-20T10:15:37.045Z,4.47
2022-12-20T10:18:15.706Z,4.45
2022-12-20T10:21:01.960Z,4.00
2022-12-20T10:23:39.323Z,3.95
2022-12-20T10:26:11.223Z,4.20
2022-12-20T10:28:38.337Z,4.40
2022-12-20T10:31:15.342Z,4.00
2022-12-20T10:33:43.231Z,4.10
2022-12-20T10:36:32.628Z,3.50
2022-12-20T10:39:02.192Z,3.50
2022-12-20T10:41:49.803Z,4.63
2022-12-20T10:44:25.599Z,4.05
2022-12-20T10:46:59.838Z,3.83
2022-12-20T10:49:41.324Z,3.90
2022-12-20T10:52:07.940Z,3.97
2022-12-20T10:54:44.151Z,3.10
2022-12-20T10:57:24.388Z,2.97
2022-12-20T11:00:08.844Z,3.20
2022-12-20T11:02:41.384Z,2.85
2022-12-20T11:05:12.680Z,2.67
2022-12-20T11:10:46.692Z,2.58
2022-12-20T11:13:25.668Z,2.05
2022-12-20T11:15:58.015Z,2.30
2022-12-20T11:18:48.900Z,2.30
2022-12-20T11:21:53.191Z,2.30
2022-12-20T11:24:49.315Z,2.13
2022-12-20T11:27:24.427Z,2.03
2022-12-20T11:30:20.105Z,2.00
2022-12-20T11:33:15.921Z,2.17
2022-12-20T11:36:18.446Z,2.28
2022-12-20T11:38:52.691Z,2.47
2022-12-20T11:41:44.262Z,1.70
2022-12-20T11:44:41.739Z,1.75
2022-12-20T11:47:43.623Z,1.73
2022-12-20T11:50:19.096Z,1.63
2022-12-20T11:52:56.951Z,1.95
2022-12-20T11:55:36.564Z,1.83
2022-12-20T11:58:18.505Z,1.75
2022-12-20T12:00:53.912Z,1.80
2022-12-20T12:03:38.455Z,2.28
2022-12-20T12:06:28.711Z,1.88
2022-12-20T12:09:11.905Z,2.00
2022-12-20T12:14:48.295Z,1.70
2022-12-20T12:18:02.536Z,1.73
2022-12-20T12:21:08.305Z,1.60
2022-12-20T12:23:44.778Z,1.80
2022-12-20T12:26:27.619Z,2.08
2022-12-20T12:29:01.494Z,2.30
2022-12-20T12:31:40.500Z,2.08
2022-12-20T12:34:25.391Z,3.10
2022-12-20T12:37:20.713Z,2.50
2022-12-20T12:40:12.154Z,2.88
2022-12-20T12:43:10.104Z,3.10
2022-12-20T12:45:58.751Z,2.78
2022-12-20T12:48:47.629Z,3.83
2022-12-20T12:51:20.842Z,3.05
2022-12-20T12:53:53.663Z,3.10
2022-12-20T12:56:43.082Z,2.85
2022-12-20T12:59:39.673Z,3.40
2022-12-20T13:02:32.700Z,3.33
2022-12-20T13:05:04.096Z,3.88
2022-12-20T13:07:33.758Z,3.63
2022-12-20T13:10:03.215Z,3.83
2022-12-20T13:12:36.262Z,3.78
2022-12-20T13:15:32.555Z,3.45
2022-12-20T13:18:23.964Z,3.95
2022-12-20T13:21:17.559Z,3.72
2022-12-20T13:23:44.605Z,4.00
2022-12-20T13:26:49.879Z,4.53
2022-12-20T13:29:27.915Z,3.80
2022-12-20T13:31:56.003Z,4.35
2022-12-20T13:34:52.961Z,3.90
2022-12-20T13:37:52.465Z,3.92
2022-12-20T13:40:44.467Z,3.95
2022-12-20T13:43:30.228Z,4.13
2022-12-20T13:46:09.418Z,4.72
2022-12-20T13:49:00.799Z,4.25
2022-12-20T13:51:28.278Z,4.80
2022-12-20T13:54:04.007Z,5.43
2022-12-20T13:56:50.831Z,5.00
2022-12-20T13:59:30.993Z,5.32
2022-12-20T14:02:04.087Z,4.32
2022-12-20T14:04:46.611Z,5.45
2022-12-20T14:07:17.923Z,5.20
2022-12-20T14:09:46.872Z,4.35
2022-12-20T14:12:23.441Z,4.95
2022-12-20T14:14:53.060Z,4.20
2022-12-20T14:17:33.694Z,4.47
2022-12-20T14:20:15.145Z,4.35
2022-12-20T14:23:06.860Z,4.82
2022-12-20T14:25:41.473Z,4.18
2022-12-20T14:28:44.519Z,3.95
2022-12-20T14:31:33.789Z,3.90
2022-12-20T14:34:12.866Z,4.05
2022-12-20T14:36:42.719Z,4.18
2022-12-20T14:39:34.122Z,4.28
2022-12-20T14:42:10.630Z,3.67
2022-12-20T14:44:37.595Z,4.43
2022-12-20T14:47:26.656Z,4.03
2022-12-20T14:50:02.352Z,4.40
2022-12-20T14:52:32.558Z,8.70
2022-12-20T14:55:08.309Z,4.55
2022-12-20T14:57:36.350Z,3.88
2022-12-20T15:00:29.766Z,3.90
2022-12-20T15:05:51.517Z,4.15
2022-12-20T15:08:27.906Z,3.75
2022-12-20T15:11:08.333Z,4.30
2022-12-20T15:13:49.767Z,4.30
2022-12-20T15:16:20.498Z,3.95
2022-12-20T15:18:49.229Z,3.33
2022-12-20T15:21:37.706Z,3.50
2022-12-20T15:24:10.092Z,3.30
2022-12-20T15:26:37.839Z,3.90
2022-12-20T15:29:04.936Z,4.38
2022-12-20T15:31:34.600Z,4.60
2022-12-20T15:34:19.116Z,4.18
2022-12-20T15:36:46.700Z,4.07
2022-12-20T15:39:14.901Z,3.72
2022-12-20T15:41:46.009Z,4.30
2022-12-20T15:44:28.648Z,4.25
2022-12-20T15:46:55.736Z,4.78
2022-12-20T15:49:25.516Z,4.60
2022-12-20T15:51:53.856Z,4.28
2022-12-20T15:54:24.376Z,4.40
2022-12-20T15:56:51.387Z,3.30
2022-12-20T15:59:57.643Z,4.20
2022-12-20T16:02:26.919Z,3.70
2022-12-20T16:04:55.060Z,4.53
2022-12-20T16:07:22.654Z,4.07
2022-12-20T16:09:49.345Z,3.85
2022-12-20T16:12:20.910Z,3.80
2022-12-20T16:14:48.034Z,3.70
2022-12-20T16:17:16.443Z,4.05
2022-12-20T16:19:43.767Z,4.20
2022-12-20T16:22:26.436Z,3.90
2022-12-20T16:24:53.385Z,4.25
2022-12-20T16:27:20.940Z,3.28
2022-12-20T16:29:47.747Z,4.53
2022-12-20T16:32:17.313Z,4.53
2022-12-20T16:34:44.722Z,4.40
2022-12-20T16:37:12.321Z,6.00
2022-12-20T16:39:39.153Z,3.92
2022-12-20T16:42:15.159Z,4.28
2022-12-20T16:44:44.571Z,4.22
2022-12-20T16:47:12.528Z,3.75
2022-12-20T16:49:39.767Z,5.85
2022-12-20T16:52:16.856Z,5.53
2022-12-20T16:54:43.661Z,5.22
2022-12-20T16:57:10.670Z,4.50
2022-12-20T16:59:37.944Z,3.90
2022-12-20T17:02:28.410Z,4.40
2022-12-20T17:04:55.521Z,4.28
2022-12-20T17:07:22.787Z,4.35
2022-12-20T17:09:49.552Z,4.78
2022-12-20T17:12:22.116Z,4.03
2022-12-20T17:14:49.315Z,3.65
2022-12-20T17:17:17.359Z,4.07
2022-12-20T17:19:44.050Z,4.68
2022-12-20T17:24:57.319Z,5.40
2022-12-20T17:27:24.388Z,4.80
2022-12-20T17:29:51.325Z,5.82
2022-12-20T17:32:23.833Z,5.95
2022-12-20T17:34:51.032Z,6.40
2022-12-20T17:37:18.447Z,5.88
2022-12-20T17:39:45.831Z,5.70
2022-12-20T17:42:16.523Z,5.28
2022-12-20T17:44:43.153Z,5.57
2022-12-20T17:47:11.970Z,6.07
2022-12-20T17:49:39.073Z,6.82
2022-12-20T17:52:06.098Z,9.75
2022-12-20T17:54:39.682Z,9.93
2022-12-20T17:57:15.563Z,11.10
2022-12-20T17:59:42.703Z,8.63
2022-12-20T18:02:21.058Z,6.93
2022-12-20T18:04:48.079Z,6.85
2022-12-20T18:07:15.322Z,6.18
2022-12-20T18:09:42.724Z,6.32
2022-12-20T18:12:11.272Z,6.32
2022-12-20T18:14:37.992Z,6.72
2022-12-20T18:17:05.471Z,6.35
2022-12-20T18:19:32.438Z,6.07
2022-12-20T18:22:00.315Z,6.50
2022-12-20T18:24:27.522Z,6.20
2022-12-20T18:26:54.786Z,6.85
2022-12-20T18:29:21.500Z,7.28
2022-12-20T18:31:49.076Z,7.35
2022-12-20T18:34:15.843Z,7.07
2022-12-20T18:36:43.167Z,6.30
2022-12-20T18:39:12.429Z,6.70
2022-12-20T18:41:43.196Z,6.80
2022-12-20T18:44:11.490Z,6.70
2022-12-20T18:46:39.308Z,6.35
2022-12-20T18:49:06.136Z,6.72
2022-12-20T18:51:38.845Z,6.50
2022-12-20T18:54:07.726Z,7.10
2022-12-20T18:56:37.198Z,6.10
2022-12-20T18:59:11.250Z,6.78
2022-12-20T19:01:40.712Z,7.32
2022-12-20T19:04:08.081Z,7.55
2022-12-20T19:06:36.511Z,7.40
2022-12-20T19:09:07.964Z,7.10
2022-12-20T19:11:35.267Z,6.97
2022-12-20T19:14:02.048Z,7.65
2022-12-20T19:16:32.521Z,8.52
2022-12-20T19:19:00.994Z,8.00
2022-12-20T19:21:33.550Z,7.65
2022-12-20T19:24:03.730Z,9.60
2022-12-20T19:26:31.812Z,8.65
2022-12-20T19:28:58.905Z,7.88
2022-12-20T19:31:28.470Z,8.73
2022-12-20T19:34:04.710Z,8.95
2022-12-20T19:36:37.677Z,7.53
2022-12-20T19:41:34.693Z,7.25
2022-12-20T19:44:01.796Z,7.95
2022-12-20T19:46:30.164Z,9.07
2022-12-20T19:48:58.909Z,9.30
2022-12-20T19:51:27.645Z,9.02
2022-12-20T19:53:55.458Z,9.45
2022-12-20T19:56:26.378Z,10.55
2022-12-20T19:58:54.800Z,9.82
2022-12-20T20:01:26.105Z,10.18
2022-12-20T20:03:54.773Z,10.80
2022-12-20T20:06:23.072Z,10.40
2022-12-20T20:08:51.033Z,12.25
2022-12-20T20:11:20.635Z,11.95
2022-12-20T20:13:47.399Z,11.50
2022-12-20T20:16:21.542Z,13.18
2022-12-20T20:18:50.047Z,12.38
2022-12-20T20:21:21.681Z,13.25
2022-12-20T20:23:50.357Z,12.80
2022-12-20T20:26:20.792Z,12.65
2022-12-20T20:28:48.025Z,13.23
2022-12-20T20:31:16.633Z,12.68
2022-12-20T20:33:44.741Z,14.13
2022-12-20T20:36:20.859Z,13.75
2022-12-20T20:38:47.783Z,14.05
2022-12-20T20:41:15.070Z,15.20
2022-12-20T20:43:42.915Z,14.40
2022-12-20T20:46:12.284Z,14.65
2022-12-20T20:48:40.758Z,14.35
2022-12-20T20:51:07.493Z,14.20
2022-12-20T20:53:35.555Z,15.13
2022-12-20T20:56:03.905Z,14.95
2022-12-20T20:58:31.981Z,15.60
2022-12-20T21:01:00.656Z,16.27
2022-12-20T21:03:30.083Z,14.65
2022-12-20T21:06:35.033Z,15.48
2022-12-20T21:08:44.758Z,15.75
2022-12-20T21:11:12.593Z,16.02
2022-12-20T21:13:39.703Z,16.90
2022-12-20T21:16:20.554Z,16.38
2022-12-20T21:18:58.856Z,16.38
2022-12-20T21:21:28.957Z,16.27
2022-12-20T21:23:55.941Z,15.98
2022-12-20T21:26:25.451Z,17.00
2022-12-20T21:28:57.010Z,16.60
2022-12-20T21:31:24.435Z,17.95
2022-12-20T21:33:51.264Z,18.13
2022-12-20T21:36:19.679Z,18.70
2022-12-20T21:38:51.257Z,20.35
2022-12-20T21:41:20.562Z,18.92
2022-12-20T21:43:47.301Z,21.38
2022-12-20T21:46:14.959Z,22.15
2022-12-20T21:48:43.509Z,22.45
2022-12-20T21:51:17.545Z,21.67
2022-12-20T21:53:49.691Z,21.27
2022-12-20T21:56:18.235Z,21.42
2022-12-20T21:58:45.594Z,21.70
2022-12-20T22:01:17.051Z,23.40
2022-12-20T22:03:44.472Z,22.75
2022-12-20T22:06:11.809Z,23.40
2022-12-20T22:08:39.190Z,24.15
2022-12-20T22:11:09.572Z,25.40
2022-12-20T22:13:41.534Z,23.50
2022-12-20T22:16:21.412Z,24.90
2022-12-20T22:18:49.759Z,23.70
2022-12-20T22:21:21.187Z,23.15
2022-12-20T22:23:48.257Z,23.35
2022-12-20T22:26:18.261Z,21.77
2022-12-20T22:28:49.827Z,24.15
2022-12-20T22:31:18.058Z,22.13
2022-12-20T22:33:45.377Z,22.85
2022-12-20T22:36:15.039Z,25.50
2022-12-20T22:38:43.128Z,25.77
2022-12-20T22:41:13.134Z,24.95
2022-12-20T22:43:40.934Z,24.58
2022-12-20T22:46:10.781Z,25.17
2022-12-20T22:48:38.767Z,25.25
2022-12-20T22:51:18.130Z,23.77
2022-12-20T22:53:45.358Z,24.63
2022-12-20T22:56:13.192Z,25.27
2022-12-20T22:58:40.155Z,25.38
2022-12-20T23:01:10.771Z,25.10
2022-12-20T23:03:38.184Z,25.80
2022-12-20T23:06:07.535Z,26.15
2022-12-20T23:08:36.933Z,26.15
2022-12-20T23:11:28.277Z,26.75
2022-12-20T23:14:13.828Z,24.33
2022-12-20T23:16:41.360Z,24.98
2022-12-20T23:19:08.027Z,24.40
2022-12-20T23:21:53.837Z,25.98
2022-12-20T23:24:20.573Z,25.88
2022-12-20T23:26:47.993Z,27.00
2022-12-20T23:29:14.781Z,27.83
2022-12-20T23:31:42.221Z,28.27
2022-12-20T23:34:09.006Z,27.92
2022-12-20T23:36:37.729Z,28.35
2022-12-20T23:39:04.918Z,29.52
2022-12-20T23:41:32.465Z,30.30
2022-12-20T23:43:59.395Z,30.02
2022-12-20T23:46:27.112Z,32.20
2022-12-20T23:48:53.940Z,30.77
2022-12-20T23:51:21.922Z,29.85
2022-12-20T23:53:50.664Z,30.10
2022-12-20T23:56:20.354Z,31.10
2022-12-20T23:58:52.071Z,31.42
